Wallace, California
Current Conditions -  °F | °C
As of 6:55 PM on Tuesday 25 Nov 2014 (Local Time) from KSCK Reporting Station
Clear Clear  
Wind Chill: 54°   Ceiling: Unl
Heat Index: 54°   Visibility: 8mi
Dew Point: 48°   Wind: 0mph
Humidity: 80%   Direction: NA
Pressure: 30.37"   Gusts: NA
Location:  38.19°N, 120.98°W
Report Text: KSCK 260255Z 00000KT 8SM CLR 12/09 A3037 RMK AO2 SLP282 T01220089 55003
Loading
Personal Weather Stations






























Interactive Weather Map New forecast layout! Learn more

10-Day Weather Forecast

Advertisements
Track Severe Weather on mobile